sensor_id;sensor_type;location;lat;lon;timestamp;P1;durP1;ratioP1;P2;durP2;ratioP2
45970;SDS011;31681;48.982;8.394;2023-04-03T00:01:32;3.30;;;1.63;;
45970;SDS011;31681;48.982;8.394;2023-04-03T00:03:57;3.23;;;1.77;;
45970;SDS011;31681;48.982;8.394;2023-04-03T00:06:23;1.50;;;1.40;;
45970;SDS011;31681;48.982;8.394;2023-04-03T00:08:50;2.00;;;1.80;;
45970;SDS011;31681;48.982;8.394;2023-04-03T00:11:17;2.20;;;1.30;;
45970;SDS011;31681;48.982;8.394;2023-04-03T00:13:43;3.03;;;1.67;;
45970;SDS011;31681;48.982;8.394;2023-04-03T00:16:09;1.97;;;1.57;;
45970;SDS011;31681;48.982;8.394;2023-04-03T00:18:35;2.33;;;1.63;;
45970;SDS011;31681;48.982;8.394;2023-04-03T00:21:01;1.80;;;1.60;;
45970;SDS011;31681;48.982;8.394;2023-04-03T00:23:27;3.67;;;1.83;;
45970;SDS011;31681;48.982;8.394;2023-04-03T00:25:53;2.97;;;1.80;;
45970;SDS011;31681;48.982;8.394;2023-04-03T00:28:19;2.93;;;2.00;;
45970;SDS011;31681;48.982;8.394;2023-04-03T00:30:45;2.43;;;1.53;;
45970;SDS011;31681;48.982;8.394;2023-04-03T00:33:12;2.53;;;1.97;;
45970;SDS011;31681;48.982;8.394;2023-04-03T00:35:39;2.63;;;1.60;;
45970;SDS011;31681;48.982;8.394;2023-04-03T00:38:05;3.60;;;1.50;;
45970;SDS011;31681;48.982;8.394;2023-04-03T00:40:38;2.57;;;1.57;;
45970;SDS011;31681;48.982;8.394;2023-04-03T00:45:42;3.57;;;1.60;;
45970;SDS011;31681;48.982;8.394;2023-04-03T00:48:11;3.13;;;1.60;;
45970;SDS011;31681;48.982;8.394;2023-04-03T00:50:41;4.60;;;1.80;;
45970;SDS011;31681;48.982;8.394;2023-04-03T00:53:09;2.30;;;1.53;;
45970;SDS011;31681;48.982;8.394;2023-04-03T00:55:39;2.83;;;1.40;;
45970;SDS011;31681;48.982;8.394;2023-04-03T00:58:06;2.20;;;1.30;;
45970;SDS011;31681;48.982;8.394;2023-04-03T01:00:32;1.83;;;1.70;;
45970;SDS011;31681;48.982;8.394;2023-04-03T01:03:00;3.20;;;1.87;;
45970;SDS011;31681;48.982;8.394;2023-04-03T01:05:29;2.43;;;1.30;;
45970;SDS011;31681;48.982;8.394;2023-04-03T01:07:55;2.37;;;1.60;;
45970;SDS011;31681;48.982;8.394;2023-04-03T01:10:21;3.10;;;1.40;;
45970;SDS011;31681;48.982;8.394;2023-04-03T01:12:48;3.07;;;1.60;;
45970;SDS011;31681;48.982;8.394;2023-04-03T01:15:20;2.73;;;1.93;;
45970;SDS011;31681;48.982;8.394;2023-04-03T01:17:54;2.83;;;1.60;;
45970;SDS011;31681;48.982;8.394;2023-04-03T01:25:42;1.80;;;1.53;;
45970;SDS011;31681;48.982;8.394;2023-04-03T01:28:14;2.17;;;1.43;;
45970;SDS011;31681;48.982;8.394;2023-04-03T01:33:33;4.07;;;1.53;;
45970;SDS011;31681;48.982;8.394;2023-04-03T01:36:00;1.77;;;1.33;;
45970;SDS011;31681;48.982;8.394;2023-04-03T01:38:27;1.70;;;1.50;;
45970;SDS011;31681;48.982;8.394;2023-04-03T01:40:53;1.90;;;1.33;;
45970;SDS011;31681;48.982;8.394;2023-04-03T01:43:18;2.43;;;1.50;;
45970;SDS011;31681;48.982;8.394;2023-04-03T01:45:44;1.40;;;1.30;;
45970;SDS011;31681;48.982;8.394;2023-04-03T01:48:11;2.47;;;1.57;;
45970;SDS011;31681;48.982;8.394;2023-04-03T01:50:38;2.03;;;1.50;;
45970;SDS011;31681;48.982;8.394;2023-04-03T01:53:04;2.50;;;1.70;;
45970;SDS011;31681;48.982;8.394;2023-04-03T01:55:30;1.50;;;1.30;;
45970;SDS011;31681;48.982;8.394;2023-04-03T01:57:55;1.60;;;1.50;;
45970;SDS011;31681;48.982;8.394;2023-04-03T02:00:21;1.90;;;1.40;;
45970;SDS011;31681;48.982;8.394;2023-04-03T02:02:47;1.77;;;1.47;;
45970;SDS011;31681;48.982;8.394;2023-04-03T02:05:12;3.53;;;1.60;;
45970;SDS011;31681;48.982;8.394;2023-04-03T02:07:38;2.80;;;1.60;;
45970;SDS011;31681;48.982;8.394;2023-04-03T02:10:04;3.10;;;1.70;;
45970;SDS011;31681;48.982;8.394;2023-04-03T02:12:30;2.90;;;2.10;;
45970;SDS011;31681;48.982;8.394;2023-04-03T02:14:55;2.10;;;1.70;;
45970;SDS011;31681;48.982;8.394;2023-04-03T02:17:21;1.90;;;1.60;;
45970;SDS011;31681;48.982;8.394;2023-04-03T02:19:46;1.93;;;1.73;;
45970;SDS011;31681;48.982;8.394;2023-04-03T02:22:12;1.90;;;1.70;;
45970;SDS011;31681;48.982;8.394;2023-04-03T02:24:37;3.77;;;1.87;;
45970;SDS011;31681;48.982;8.394;2023-04-03T02:27:05;4.43;;;2.00;;
45970;SDS011;31681;48.982;8.394;2023-04-03T02:29:30;2.10;;;1.53;;
45970;SDS011;31681;48.982;8.394;2023-04-03T02:31:56;3.60;;;1.67;;
45970;SDS011;31681;48.982;8.394;2023-04-03T02:34:22;3.57;;;1.60;;
45970;SDS011;31681;48.982;8.394;2023-04-03T02:36:48;2.67;;;1.53;;
45970;SDS011;31681;48.982;8.394;2023-04-03T02:39:15;2.20;;;1.93;;
45970;SDS011;31681;48.982;8.394;2023-04-03T02:41:41;2.57;;;1.70;;
45970;SDS011;31681;48.982;8.394;2023-04-03T02:44:14;4.10;;;1.77;;
45970;SDS011;31681;48.982;8.394;2023-04-03T02:46:40;2.50;;;1.70;;
45970;SDS011;31681;48.982;8.394;2023-04-03T02:49:05;2.10;;;1.70;;
45970;SDS011;31681;48.982;8.394;2023-04-03T02:51:31;2.40;;;1.60;;
45970;SDS011;31681;48.982;8.394;2023-04-03T02:53:57;2.00;;;1.70;;
45970;SDS011;31681;48.982;8.394;2023-04-03T02:56:26;3.07;;;1.70;;
45970;SDS011;31681;48.982;8.394;2023-04-03T02:58:52;1.87;;;1.57;;
45970;SDS011;31681;48.982;8.394;2023-04-03T03:01:18;4.23;;;1.97;;
45970;SDS011;31681;48.982;8.394;2023-04-03T03:03:43;1.90;;;1.70;;
45970;SDS011;31681;48.982;8.394;2023-04-03T03:06:10;3.50;;;1.90;;
45970;SDS011;31681;48.982;8.394;2023-04-03T03:08:38;4.07;;;2.23;;
45970;SDS011;31681;48.982;8.394;2023-04-03T03:11:05;2.70;;;1.80;;
45970;SDS011;31681;48.982;8.394;2023-04-03T03:13:32;1.57;;;1.47;;
45970;SDS011;31681;48.982;8.394;2023-04-03T03:15:58;3.80;;;2.20;;
45970;SDS011;31681;48.982;8.394;2023-04-03T03:18:24;3.00;;;2.07;;
45970;SDS011;31681;48.982;8.394;2023-04-03T03:20:53;4.00;;;2.07;;
45970;SDS011;31681;48.982;8.394;2023-04-03T03:23:20;3.43;;;2.00;;
45970;SDS011;31681;48.982;8.394;2023-04-03T03:25:46;4.63;;;1.90;;
45970;SDS011;31681;48.982;8.394;2023-04-03T03:28:12;5.43;;;2.33;;
45970;SDS011;31681;48.982;8.394;2023-04-03T03:30:38;2.17;;;1.97;;
45970;SDS011;31681;48.982;8.394;2023-04-03T03:33:03;3.70;;;2.00;;
45970;SDS011;31681;48.982;8.394;2023-04-03T03:35:29;2.53;;;1.87;;
45970;SDS011;31681;48.982;8.394;2023-04-03T03:37:54;2.63;;;1.80;;
45970;SDS011;31681;48.982;8.394;2023-04-03T03:40:21;4.53;;;2.10;;
45970;SDS011;31681;48.982;8.394;2023-04-03T03:42:47;4.17;;;2.27;;
45970;SDS011;31681;48.982;8.394;2023-04-03T03:45:12;3.40;;;2.30;;
45970;SDS011;31681;48.982;8.394;2023-04-03T03:47:38;2.90;;;2.00;;
45970;SDS011;31681;48.982;8.394;2023-04-03T03:50:05;4.73;;;2.13;;
45970;SDS011;31681;48.982;8.394;2023-04-03T03:52:31;2.43;;;2.10;;
45970;SDS011;31681;48.982;8.394;2023-04-03T03:54:57;5.07;;;2.07;;
45970;SDS011;31681;48.982;8.394;2023-04-03T03:57:22;2.60;;;2.40;;
45970;SDS011;31681;48.982;8.394;2023-04-03T03:59:48;2.17;;;1.73;;
45970;SDS011;31681;48.982;8.394;2023-04-03T04:02:16;2.07;;;1.87;;
45970;SDS011;31681;48.982;8.394;2023-04-03T04:04:42;5.07;;;2.00;;
45970;SDS011;31681;48.982;8.394;2023-04-03T04:07:08;4.10;;;2.00;;
45970;SDS011;31681;48.982;8.394;2023-04-03T04:09:34;3.23;;;2.03;;
45970;SDS011;31681;48.982;8.394;2023-04-03T04:11:59;4.90;;;1.93;;
45970;SDS011;31681;48.982;8.394;2023-04-03T04:14:25;2.30;;;2.00;;
45970;SDS011;31681;48.982;8.394;2023-04-03T04:16:52;3.23;;;2.10;;
45970;SDS011;31681;48.982;8.394;2023-04-03T04:19:22;2.17;;;1.97;;
45970;SDS011;31681;48.982;8.394;2023-04-03T04:21:48;2.70;;;1.80;;
45970;SDS011;31681;48.982;8.394;2023-04-03T04:24:14;2.40;;;2.20;;
45970;SDS011;31681;48.982;8.394;2023-04-03T04:26:39;2.80;;;1.87;;
45970;SDS011;31681;48.982;8.394;2023-04-03T04:29:08;4.17;;;2.10;;
45970;SDS011;31681;48.982;8.394;2023-04-03T04:31:35;5.77;;;2.13;;
45970;SDS011;31681;48.982;8.394;2023-04-03T04:34:00;2.00;;;1.80;;
45970;SDS011;31681;48.982;8.394;2023-04-03T04:36:26;2.40;;;2.20;;
45970;SDS011;31681;48.982;8.394;2023-04-03T04:38:52;2.43;;;1.87;;
45970;SDS011;31681;48.982;8.394;2023-04-03T04:41:23;4.10;;;2.00;;
45970;SDS011;31681;48.982;8.394;2023-04-03T04:43:51;2.87;;;1.87;;
45970;SDS011;31681;48.982;8.394;2023-04-03T04:46:17;3.77;;;2.10;;
45970;SDS011;31681;48.982;8.394;2023-04-03T04:48:48;3.13;;;2.17;;
45970;SDS011;31681;48.982;8.394;2023-04-03T04:51:15;4.47;;;1.87;;
45970;SDS011;31681;48.982;8.394;2023-04-03T04:53:41;2.20;;;2.00;;
45970;SDS011;31681;48.982;8.394;2023-04-03T04:56:10;3.70;;;2.50;;
45970;SDS011;31681;48.982;8.394;2023-04-03T04:58:38;2.77;;;2.17;;
45970;SDS011;31681;48.982;8.394;2023-04-03T05:01:07;2.10;;;1.90;;
45970;SDS011;31681;48.982;8.394;2023-04-03T05:03:39;4.23;;;2.03;;
45970;SDS011;31681;48.982;8.394;2023-04-03T05:06:04;3.53;;;2.40;;
45970;SDS011;31681;48.982;8.394;2023-04-03T05:08:32;3.60;;;2.10;;
45970;SDS011;31681;48.982;8.394;2023-04-03T05:10:58;3.00;;;2.03;;
45970;SDS011;31681;48.982;8.394;2023-04-03T05:13:26;2.80;;;2.10;;
45970;SDS011;31681;48.982;8.394;2023-04-03T05:15:53;3.13;;;2.00;;
45970;SDS011;31681;48.982;8.394;2023-04-03T05:18:18;2.53;;;2.10;;
45970;SDS011;31681;48.982;8.394;2023-04-03T05:20:44;2.90;;;2.10;;
45970;SDS011;31681;48.982;8.394;2023-04-03T05:23:10;2.47;;;1.73;;
45970;SDS011;31681;48.982;8.394;2023-04-03T05:25:39;3.70;;;2.50;;
45970;SDS011;31681;48.982;8.394;2023-04-03T05:28:06;3.10;;;1.73;;
45970;SDS011;31681;48.982;8.394;2023-04-03T05:30:32;4.93;;;2.30;;
45970;SDS011;31681;48.982;8.394;2023-04-03T05:33:00;2.53;;;1.93;;
45970;SDS011;31681;48.982;8.394;2023-04-03T05:35:39;3.30;;;2.20;;
45970;SDS011;31681;48.982;8.394;2023-04-03T05:38:09;3.13;;;1.83;;
45970;SDS011;31681;48.982;8.394;2023-04-03T05:40:35;3.53;;;2.17;;
45970;SDS011;31681;48.982;8.394;2023-04-03T05:43:01;2.57;;;2.33;;
45970;SDS011;31681;48.982;8.394;2023-04-03T05:45:33;3.40;;;2.10;;
45970;SDS011;31681;48.982;8.394;2023-04-03T05:47:58;4.47;;;1.93;;
45970;SDS011;31681;48.982;8.394;2023-04-03T05:50:24;4.87;;;2.30;;
45970;SDS011;31681;48.982;8.394;2023-04-03T05:52:52;2.67;;;1.77;;
45970;SDS011;31681;48.982;8.394;2023-04-03T05:55:22;3.23;;;2.50;;
45970;SDS011;31681;48.982;8.394;2023-04-03T05:57:48;5.63;;;2.30;;
45970;SDS011;31681;48.982;8.394;2023-04-03T06:00:14;3.63;;;2.50;;
45970;SDS011;31681;48.982;8.394;2023-04-03T06:02:51;4.70;;;2.33;;
45970;SDS011;31681;48.982;8.394;2023-04-03T06:05:21;4.93;;;3.60;;
45970;SDS011;31681;48.982;8.394;2023-04-03T06:07:47;4.80;;;2.10;;
45970;SDS011;31681;48.982;8.394;2023-04-03T06:10:14;5.60;;;4.07;;
45970;SDS011;31681;48.982;8.394;2023-04-03T06:12:40;3.53;;;2.00;;
45970;SDS011;31681;48.982;8.394;2023-04-03T06:15:06;4.23;;;2.20;;
45970;SDS011;31681;48.982;8.394;2023-04-03T06:17:33;3.63;;;2.13;;
45970;SDS011;31681;48.982;8.394;2023-04-03T06:19:58;4.03;;;2.10;;
45970;SDS011;31681;48.982;8.394;2023-04-03T06:22:24;3.90;;;2.10;;
45970;SDS011;31681;48.982;8.394;2023-04-03T06:24:51;4.30;;;2.30;;
45970;SDS011;31681;48.982;8.394;2023-04-03T06:27:16;5.17;;;2.40;;
45970;SDS011;31681;48.982;8.394;2023-04-03T06:29:42;2.97;;;2.30;;
45970;SDS011;31681;48.982;8.394;2023-04-03T06:32:08;2.93;;;2.20;;
45970;SDS011;31681;48.982;8.394;2023-04-03T06:34:33;3.47;;;2.30;;
45970;SDS011;31681;48.982;8.394;2023-04-03T06:37:01;4.37;;;2.47;;
45970;SDS011;31681;48.982;8.394;2023-04-03T06:39:26;3.40;;;2.20;;
45970;SDS011;31681;48.982;8.394;2023-04-03T06:41:52;2.73;;;2.10;;
45970;SDS011;31681;48.982;8.394;2023-04-03T06:44:25;2.93;;;2.20;;
45970;SDS011;31681;48.982;8.394;2023-04-03T06:46:51;5.07;;;2.43;;
45970;SDS011;31681;48.982;8.394;2023-04-03T06:49:17;4.27;;;2.60;;
45970;SDS011;31681;48.982;8.394;2023-04-03T06:51:43;3.53;;;2.60;;
45970;SDS011;31681;48.982;8.394;2023-04-03T06:54:09;2.50;;;2.30;;
45970;SDS011;31681;48.982;8.394;2023-04-03T06:56:34;4.23;;;2.33;;
45970;SDS011;31681;48.982;8.394;2023-04-03T06:59:00;3.63;;;2.13;;
45970;SDS011;31681;48.982;8.394;2023-04-03T07:01:26;2.80;;;2.43;;
45970;SDS011;31681;48.982;8.394;2023-04-03T07:03:52;3.43;;;2.03;;
45970;SDS011;31681;48.982;8.394;2023-04-03T07:06:18;3.60;;;2.53;;
45970;SDS011;31681;48.982;8.394;2023-04-03T07:08:45;4.03;;;2.03;;
45970;SDS011;31681;48.982;8.394;2023-04-03T07:11:13;5.40;;;2.33;;
45970;SDS011;31681;48.982;8.394;2023-04-03T07:13:38;3.03;;;2.30;;
45970;SDS011;31681;48.982;8.394;2023-04-03T07:16:05;3.63;;;2.30;;
45970;SDS011;31681;48.982;8.394;2023-04-03T07:18:31;3.60;;;2.30;;
45970;SDS011;31681;48.982;8.394;2023-04-03T07:20:58;5.20;;;2.33;;
45970;SDS011;31681;48.982;8.394;2023-04-03T07:23:23;3.00;;;2.17;;
45970;SDS011;31681;48.982;8.394;2023-04-03T07:25:49;3.87;;;2.30;;
45970;SDS011;31681;48.982;8.394;2023-04-03T07:28:17;6.87;;;2.37;;
45970;SDS011;31681;48.982;8.394;2023-04-03T07:30:44;5.93;;;3.00;;
45970;SDS011;31681;48.982;8.394;2023-04-03T07:33:11;3.97;;;2.23;;
45970;SDS011;31681;48.982;8.394;2023-04-03T07:35:38;5.37;;;2.50;;
45970;SDS011;31681;48.982;8.394;2023-04-03T07:38:04;7.00;;;2.70;;
45970;SDS011;31681;48.982;8.394;2023-04-03T07:40:30;12.07;;;4.03;;
45970;SDS011;31681;48.982;8.394;2023-04-03T07:42:56;4.73;;;2.60;;
45970;SDS011;31681;48.982;8.394;2023-04-03T07:45:22;3.13;;;2.60;;
45970;SDS011;31681;48.982;8.394;2023-04-03T07:47:48;3.53;;;2.80;;
45970;SDS011;31681;48.982;8.394;2023-04-03T07:50:13;5.03;;;2.70;;
45970;SDS011;31681;48.982;8.394;2023-04-03T07:52:39;4.03;;;2.60;;
45970;SDS011;31681;48.982;8.394;2023-04-03T07:55:05;4.87;;;2.77;;
45970;SDS011;31681;48.982;8.394;2023-04-03T07:57:32;5.97;;;3.50;;
45970;SDS011;31681;48.982;8.394;2023-04-03T07:59:57;4.13;;;2.80;;
45970;SDS011;31681;48.982;8.394;2023-04-03T08:02:22;5.07;;;2.60;;
45970;SDS011;31681;48.982;8.394;2023-04-03T08:04:48;8.57;;;3.07;;
45970;SDS011;31681;48.982;8.394;2023-04-03T08:07:14;5.87;;;2.67;;
45970;SDS011;31681;48.982;8.394;2023-04-03T08:09:39;5.67;;;2.73;;
45970;SDS011;31681;48.982;8.394;2023-04-03T08:12:05;6.70;;;3.17;;
45970;SDS011;31681;48.982;8.394;2023-04-03T08:14:31;4.23;;;2.70;;
45970;SDS011;31681;48.982;8.394;2023-04-03T08:16:59;4.43;;;2.63;;
45970;SDS011;31681;48.982;8.394;2023-04-03T08:19:25;3.63;;;2.93;;
45970;SDS011;31681;48.982;8.394;2023-04-03T08:21:52;5.60;;;2.77;;
45970;SDS011;31681;48.982;8.394;2023-04-03T08:24:21;4.93;;;2.50;;
45970;SDS011;31681;48.982;8.394;2023-04-03T08:26:47;5.83;;;2.93;;
45970;SDS011;31681;48.982;8.394;2023-04-03T08:29:12;3.00;;;2.53;;
45970;SDS011;31681;48.982;8.394;2023-04-03T08:31:38;4.13;;;2.53;;
45970;SDS011;31681;48.982;8.394;2023-04-03T08:34:04;4.90;;;2.70;;
45970;SDS011;31681;48.982;8.394;2023-04-03T08:36:30;3.07;;;2.27;;
45970;SDS011;31681;48.982;8.394;2023-04-03T08:38:55;2.70;;;2.50;;
45970;SDS011;31681;48.982;8.394;2023-04-03T08:41:33;5.80;;;2.40;;
45970;SDS011;31681;48.982;8.394;2023-04-03T08:49:35;3.67;;;2.27;;
45970;SDS011;31681;48.982;8.394;2023-04-03T08:52:11;6.47;;;2.60;;
45970;SDS011;31681;48.982;8.394;2023-04-03T08:57:18;3.73;;;2.70;;
45970;SDS011;31681;48.982;8.394;2023-04-03T08:59:51;5.27;;;2.30;;
45970;SDS011;31681;48.982;8.394;2023-04-03T09:08:30;9.40;;;2.30;;
45970;SDS011;31681;48.982;8.394;2023-04-03T09:11:11;4.57;;;2.30;;
45970;SDS011;31681;48.982;8.394;2023-04-03T09:16:54;4.03;;;2.23;;
45970;SDS011;31681;48.982;8.394;2023-04-03T09:22:17;4.03;;;2.00;;
45970;SDS011;31681;48.982;8.394;2023-04-03T09:24:47;6.13;;;2.23;;
45970;SDS011;31681;48.982;8.394;2023-04-03T09:27:17;5.77;;;2.80;;
45970;SDS011;31681;48.982;8.394;2023-04-03T09:29:43;2.73;;;2.03;;
45970;SDS011;31681;48.982;8.394;2023-04-03T09:34:56;5.87;;;2.10;;
45970;SDS011;31681;48.982;8.394;2023-04-03T09:37:44;3.47;;;2.00;;
45970;SDS011;31681;48.982;8.394;2023-04-03T09:45:45;3.40;;;1.70;;
45970;SDS011;31681;48.982;8.394;2023-04-03T09:50:40;4.70;;;1.77;;
45970;SDS011;31681;48.982;8.394;2023-04-03T09:53:34;4.03;;;1.80;;
45970;SDS011;31681;48.982;8.394;2023-04-03T09:56:01;2.83;;;1.83;;
45970;SDS011;31681;48.982;8.394;2023-04-03T09:58:33;2.23;;;1.40;;
45970;SDS011;31681;48.982;8.394;2023-04-03T10:01:03;2.30;;;1.70;;
45970;SDS011;31681;48.982;8.394;2023-04-03T10:03:30;3.30;;;1.40;;
45970;SDS011;31681;48.982;8.394;2023-04-03T10:05:58;8.13;;;1.63;;
45970;SDS011;31681;48.982;8.394;2023-04-03T10:08:28;2.33;;;1.57;;
45970;SDS011;31681;48.982;8.394;2023-04-03T10:16:42;2.80;;;1.43;;
45970;SDS011;31681;48.982;8.394;2023-04-03T10:19:34;2.10;;;1.27;;
45970;SDS011;31681;48.982;8.394;2023-04-03T10:27:55;1.57;;;1.30;;
45970;SDS011;31681;48.982;8.394;2023-04-03T10:35:56;2.53;;;1.40;;
45970;SDS011;31681;48.982;8.394;2023-04-03T10:47:02;3.10;;;1.33;;
45970;SDS011;31681;48.982;8.394;2023-04-03T10:53:01;3.87;;;1.30;;
45970;SDS011;31681;48.982;8.394;2023-04-03T10:58:32;1.40;;;1.30;;
45970;SDS011;31681;48.982;8.394;2023-04-03T11:01:01;2.70;;;1.20;;
45970;SDS011;31681;48.982;8.394;2023-04-03T11:03:44;1.93;;;1.50;;
45970;SDS011;31681;48.982;8.394;2023-04-03T11:06:12;2.13;;;1.50;;
45970;SDS011;31681;48.982;8.394;2023-04-03T11:09:00;2.17;;;1.30;;
45970;SDS011;31681;48.982;8.394;2023-04-03T11:11:31;2.60;;;1.27;;
45970;SDS011;31681;48.982;8.394;2023-04-03T11:16:28;3.60;;;1.30;;
45970;SDS011;31681;48.982;8.394;2023-04-03T11:19:08;1.37;;;1.10;;
45970;SDS011;31681;48.982;8.394;2023-04-03T11:21:39;3.17;;;1.30;;
45970;SDS011;31681;48.982;8.394;2023-04-03T11:24:22;5.90;;;1.43;;
45970;SDS011;31681;48.982;8.394;2023-04-03T11:26:50;1.70;;;1.20;;
45970;SDS011;31681;48.982;8.394;2023-04-03T11:29:22;3.53;;;1.43;;
45970;SDS011;31681;48.982;8.394;2023-04-03T11:34:46;2.70;;;1.40;;
45970;SDS011;31681;48.982;8.394;2023-04-03T11:37:20;3.27;;;1.33;;
45970;SDS011;31681;48.982;8.394;2023-04-03T11:39:59;2.80;;;1.40;;
45970;SDS011;31681;48.982;8.394;2023-04-03T11:42:49;2.47;;;1.30;;
45970;SDS011;31681;48.982;8.394;2023-04-03T11:47:55;2.80;;;1.60;;
45970;SDS011;31681;48.982;8.394;2023-04-03T12:16:03;2.15;;;1.73;;
45970;SDS011;31681;48.982;8.394;2023-04-03T12:18:37;3.53;;;1.52;;
45970;SDS011;31681;48.982;8.394;2023-04-03T12:21:07;3.53;;;1.55;;
45970;SDS011;31681;48.982;8.394;2023-04-03T12:23:37;1.85;;;1.27;;
45970;SDS011;31681;48.982;8.394;2023-04-03T12:29:13;6.90;;;1.60;;
45970;SDS011;31681;48.982;8.394;2023-04-03T12:34:46;3.03;;;1.40;;
45970;SDS011;31681;48.982;8.394;2023-04-03T12:37:39;2.17;;;1.47;;
45970;SDS011;31681;48.982;8.394;2023-04-03T12:42:56;1.97;;;1.50;;
45970;SDS011;31681;48.982;8.394;2023-04-03T12:48:18;2.47;;;1.50;;
45970;SDS011;31681;48.982;8.394;2023-04-03T12:50:50;3.25;;;1.40;;
45970;SDS011;31681;48.982;8.394;2023-04-03T12:53:16;3.40;;;1.50;;
45970;SDS011;31681;48.982;8.394;2023-04-03T12:55:44;3.13;;;1.30;;
45970;SDS011;31681;48.982;8.394;2023-04-03T12:58:23;1.97;;;1.47;;
45970;SDS011;31681;48.982;8.394;2023-04-03T13:01:00;1.77;;;1.50;;
45970;SDS011;31681;48.982;8.394;2023-04-03T13:03:29;2.83;;;1.50;;
45970;SDS011;31681;48.982;8.394;2023-04-03T13:05:57;3.50;;;1.60;;
45970;SDS011;31681;48.982;8.394;2023-04-03T13:08:25;2.00;;;1.50;;
45970;SDS011;31681;48.982;8.394;2023-04-03T13:10:55;2.97;;;1.40;;
45970;SDS011;31681;48.982;8.394;2023-04-03T13:13:35;3.10;;;1.50;;
45970;SDS011;31681;48.982;8.394;2023-04-03T13:16:07;2.33;;;1.47;;
45970;SDS011;31681;48.982;8.394;2023-04-03T13:18:35;5.07;;;1.63;;
45970;SDS011;31681;48.982;8.394;2023-04-03T13:23:40;2.80;;;1.70;;
45970;SDS011;31681;48.982;8.394;2023-04-03T13:26:10;3.23;;;1.57;;
45970;SDS011;31681;48.982;8.394;2023-04-03T13:28:36;2.17;;;1.70;;
45970;SDS011;31681;48.982;8.394;2023-04-03T13:33:50;2.30;;;1.50;;
45970;SDS011;31681;48.982;8.394;2023-04-03T13:41:45;1.93;;;1.40;;
45970;SDS011;31681;48.982;8.394;2023-04-03T13:46:51;4.70;;;1.40;;
45970;SDS011;31681;48.982;8.394;2023-04-03T13:49:33;3.23;;;1.20;;
45970;SDS011;31681;48.982;8.394;2023-04-03T13:52:22;1.67;;;1.40;;
45970;SDS011;31681;48.982;8.394;2023-04-03T13:54:55;2.23;;;1.30;;
45970;SDS011;31681;48.982;8.394;2023-04-03T13:57:24;3.47;;;1.70;;
45970;SDS011;31681;48.982;8.394;2023-04-03T13:59:50;3.07;;;1.43;;
45970;SDS011;31681;48.982;8.394;2023-04-03T14:02:21;2.50;;;1.38;;
45970;SDS011;31681;48.982;8.394;2023-04-03T14:04:55;3.45;;;1.52;;
45970;SDS011;31681;48.982;8.394;2023-04-03T14:07:25;2.22;;;1.25;;
45970;SDS011;31681;48.982;8.394;2023-04-03T14:09:52;4.22;;;2.08;;
45970;SDS011;31681;48.982;8.394;2023-04-03T14:12:24;2.80;;;1.30;;
45970;SDS011;31681;48.982;8.394;2023-04-03T14:15:04;5.68;;;1.60;;
45970;SDS011;31681;48.982;8.394;2023-04-03T14:17:37;2.80;;;1.63;;
45970;SDS011;31681;48.982;8.394;2023-04-03T14:20:03;1.88;;;1.48;;
45970;SDS011;31681;48.982;8.394;2023-04-03T14:22:30;3.00;;;1.65;;
45970;SDS011;31681;48.982;8.394;2023-04-03T14:24:57;2.80;;;1.30;;
45970;SDS011;31681;48.982;8.394;2023-04-03T14:29:54;2.77;;;1.40;;
45970;SDS011;31681;48.982;8.394;2023-04-03T14:32:22;3.58;;;1.63;;
45970;SDS011;31681;48.982;8.394;2023-04-03T14:34:49;4.93;;;1.50;;
45970;SDS011;31681;48.982;8.394;2023-04-03T14:37:17;5.20;;;1.60;;
45970;SDS011;31681;48.982;8.394;2023-04-03T14:39:44;3.33;;;1.80;;
45970;SDS011;31681;48.982;8.394;2023-04-03T14:42:14;4.05;;;1.40;;
45970;SDS011;31681;48.982;8.394;2023-04-03T14:44:42;1.77;;;1.50;;
45970;SDS011;31681;48.982;8.394;2023-04-03T14:47:12;2.50;;;1.70;;
45970;SDS011;31681;48.982;8.394;2023-04-03T14:49:41;2.15;;;1.77;;
45970;SDS011;31681;48.982;8.394;2023-04-03T14:54:50;3.65;;;1.45;;
45970;SDS011;31681;48.982;8.394;2023-04-03T14:57:17;3.23;;;1.50;;
45970;SDS011;31681;48.982;8.394;2023-04-03T14:59:46;1.88;;;1.30;;
45970;SDS011;31681;48.982;8.394;2023-04-03T15:02:34;4.47;;;1.70;;
45970;SDS011;31681;48.982;8.394;2023-04-03T15:05:00;3.70;;;1.80;;
45970;SDS011;31681;48.982;8.394;2023-04-03T15:07:29;3.23;;;1.30;;
45970;SDS011;31681;48.982;8.394;2023-04-03T15:09:58;2.67;;;1.70;;
45970;SDS011;31681;48.982;8.394;2023-04-03T15:12:31;3.63;;;1.67;;
45970;SDS011;31681;48.982;8.394;2023-04-03T15:14:57;2.80;;;1.67;;
45970;SDS011;31681;48.982;8.394;2023-04-03T15:17:22;3.40;;;1.67;;
45970;SDS011;31681;48.982;8.394;2023-04-03T15:19:48;3.53;;;1.60;;
45970;SDS011;31681;48.982;8.394;2023-04-03T15:22:15;4.50;;;1.58;;
45970;SDS011;31681;48.982;8.394;2023-04-03T15:24:43;3.67;;;1.70;;
45970;SDS011;31681;48.982;8.394;2023-04-03T15:27:09;3.33;;;2.00;;
45970;SDS011;31681;48.982;8.394;2023-04-03T15:29:37;4.65;;;1.70;;
45970;SDS011;31681;48.982;8.394;2023-04-03T15:32:04;3.28;;;1.85;;
45970;SDS011;31681;48.982;8.394;2023-04-03T15:34:30;2.43;;;1.63;;
45970;SDS011;31681;48.982;8.394;2023-04-03T15:36:56;3.47;;;1.90;;
45970;SDS011;31681;48.982;8.394;2023-04-03T15:39:21;2.93;;;1.50;;
45970;SDS011;31681;48.982;8.394;2023-04-03T15:41:48;2.57;;;1.30;;
45970;SDS011;31681;48.982;8.394;2023-04-03T15:44:14;2.60;;;1.90;;
45970;SDS011;31681;48.982;8.394;2023-04-03T15:46:42;4.23;;;1.90;;
45970;SDS011;31681;48.982;8.394;2023-04-03T15:49:08;2.27;;;1.70;;
45970;SDS011;31681;48.982;8.394;2023-04-03T15:51:34;4.55;;;1.90;;
45970;SDS011;31681;48.982;8.394;2023-04-03T15:54:01;3.28;;;1.88;;
45970;SDS011;31681;48.982;8.394;2023-04-03T15:56:27;2.67;;;1.63;;
45970;SDS011;31681;48.982;8.394;2023-04-03T15:58:52;3.67;;;1.60;;
45970;SDS011;31681;48.982;8.394;2023-04-03T16:01:18;2.27;;;1.60;;
45970;SDS011;31681;48.982;8.394;2023-04-03T16:03:43;4.03;;;1.88;;
45970;SDS011;31681;48.982;8.394;2023-04-03T16:06:11;3.03;;;1.90;;
45970;SDS011;31681;48.982;8.394;2023-04-03T16:08:37;2.95;;;1.80;;
45970;SDS011;31681;48.982;8.394;2023-04-03T16:11:03;3.70;;;1.60;;
45970;SDS011;31681;48.982;8.394;2023-04-03T16:13:29;4.00;;;2.13;;
45970;SDS011;31681;48.982;8.394;2023-04-03T16:15:54;2.25;;;1.70;;
45970;SDS011;31681;48.982;8.394;2023-04-03T16:18:20;3.05;;;1.58;;
45970;SDS011;31681;48.982;8.394;2023-04-03T16:20:48;3.65;;;1.70;;
45970;SDS011;31681;48.982;8.394;2023-04-03T16:23:14;1.60;;;1.40;;
45970;SDS011;31681;48.982;8.394;2023-04-03T16:25:40;3.33;;;1.70;;
45970;SDS011;31681;48.982;8.394;2023-04-03T16:28:15;2.72;;;1.60;;
45970;SDS011;31681;48.982;8.394;2023-04-03T16:30:43;2.08;;;1.50;;
45970;SDS011;31681;48.982;8.394;2023-04-03T16:36:02;2.33;;;1.73;;
45970;SDS011;31681;48.982;8.394;2023-04-03T16:38:33;3.83;;;1.70;;
45970;SDS011;31681;48.982;8.394;2023-04-03T16:40:58;4.13;;;1.90;;
45970;SDS011;31681;48.982;8.394;2023-04-03T16:43:27;2.80;;;1.80;;
45970;SDS011;31681;48.982;8.394;2023-04-03T16:45:53;4.55;;;1.65;;
45970;SDS011;31681;48.982;8.394;2023-04-03T16:48:18;3.97;;;1.80;;
45970;SDS011;31681;48.982;8.394;2023-04-03T16:50:47;3.30;;;1.73;;
45970;SDS011;31681;48.982;8.394;2023-04-03T16:53:14;3.25;;;1.60;;
45970;SDS011;31681;48.982;8.394;2023-04-03T16:55:40;4.40;;;1.90;;
45970;SDS011;31681;48.982;8.394;2023-04-03T16:58:05;2.90;;;1.80;;
45970;SDS011;31681;48.982;8.394;2023-04-03T17:00:32;3.85;;;2.00;;
45970;SDS011;31681;48.982;8.394;2023-04-03T17:02:59;3.30;;;1.70;;
45970;SDS011;31681;48.982;8.394;2023-04-03T17:05:25;4.43;;;1.70;;
45970;SDS011;31681;48.982;8.394;2023-04-03T17:07:51;2.67;;;1.67;;
45970;SDS011;31681;48.982;8.394;2023-04-03T17:10:16;6.25;;;2.00;;
45970;SDS011;31681;48.982;8.394;2023-04-03T17:12:42;5.77;;;3.10;;
45970;SDS011;31681;48.982;8.394;2023-04-03T17:15:08;3.10;;;1.90;;